• Join FlightAware (Why Join?)
  • Login
  • US Flag 
06:08PM EDT


 

Airport Tracker/Info


-or-


 

Live Flight TrackerFlight Track Log ✈ N607PA ✈ 08-Nov-2013 ✈ KTLH - KDAB

Flight Track Log - Related Links

Times and Time Zones

All times are in EST time to prevent confusion due to time zone crossing. See the N607PA flight status page for this flight to view local times or setup timezone preferences in your user account.

Time Position Orientation Groundspeed Altitude Reporting Facility
EST Latitude Longitude Course Direction KTS MPH feet Rate Location/Type
08:46PM 30.1469 -83.3008 116° Southeast 130 150 3,500  Level Jacksonville Center
08:47PM 30.1344 -83.2600 109° East 130 150 3,500  Level Jacksonville Center
08:48PM 30.1219 -83.2192 109° East 130 150 3,500  Level Jacksonville Center
08:49PM 30.1117 -83.1808 107° East 130 150 3,500  Level Jacksonville Center
08:50PM 30.0972 -83.1375 111° Southeast 130 150 3,500  Level Jacksonville Center
08:51PM 29.9855 -83.2038 116° Southeast  Level Estimated
08:51PM 30.0867 -83.0967 107° East 130 150 3,500  Level Jacksonville Center
08:52PM 30.0744 -83.0558 109° East 130 150 3,500  Level Jacksonville Center
08:53PM 30.0619 -83.0125 108° East 130 150 3,500  Level Jacksonville Center
08:54PM 30.0494 -82.9717 109° East 130 150 3,500  Level Jacksonville Center
08:55PM 30.0347 -82.9286 112° Southeast 130 150 3,500  Level Jacksonville Center
08:56PM 30.0222 -82.8878 109° East 130 150 3,500  Level Jacksonville Center
08:57PM 30.0117 -82.8447 106° East 130 150 3,500  Level Jacksonville Center
08:58PM 29.9972 -82.8061 113° Southeast 130 150 3,500  Level Jacksonville Center
08:59PM 29.9847 -82.7606 108° East 130 150 3,500  Level Jacksonville Center
09:00PM 29.9719 -82.7200 110° East 130 150 3,500  Level Jacksonville Center
09:00PM 29.9636 -82.7031 120° Southeast 135 155 3,500  Level Jacksonville Center
09:01PM 29.9594 -82.6792 101° East 130 150 3,500  Level Jacksonville Center
09:01PM 29.9553 -82.6697 117° Southeast 135 155 3,500  Level Jacksonville Center
09:02PM 29.9489 -82.6383 103° East 130 150 3,500 60 Level Jacksonville Center
09:02PM 29.9425 -82.6264 122° Southeast 135 155 3,600  Climbing Jacksonville Center
09:03PM 29.9364 -82.5978 104° East 130 150 3,500 -120 Descending Jacksonville Center
09:03PM 29.9281 -82.5858 129° Southeast 133 153 3,500  Level Jacksonville Center
09:04PM 29.9236 -82.5594 101° East 130 150 3,500  Level Jacksonville Center
09:04PM 29.9175 -82.5475 121° Southeast 133 153 3,500  Level Jacksonville Center
09:05PM 29.9111 -82.5186 104° East 130 150 3,500  Level Jacksonville Center
09:05PM 29.9069 -82.5044 109° East 133 153 3,500  Level Jacksonville Center
09:06PM 29.8983 -82.4781 111° Southeast 130 150 3,500  Level Jacksonville Center
09:06PM 29.8922 -82.4636 116° Southeast 133 153 3,500  Level Jacksonville Center
09:07PM 29.8878 -82.4397 102° East 130 150 3,500  Level Jacksonville Center
09:07PM 29.8814 -82.4231 114° Southeast 133 153 3,500  Level Jacksonville Center
09:08PM 29.8753 -82.3992 106° East 130 150 3,500  Level Jacksonville Center
09:08PM 29.8689 -82.3825 114° Southeast 132 152 3,500  Level Jacksonville Center
09:09PM 29.8625 -82.3586 107° East 130 150 3,500  Level Jacksonville Center
09:09PM 29.8561 -82.3369 109° East 135 155 3,500  Level Jacksonville Center
09:10PM 29.8519 -82.3203 106° East 130 150 3,500  Level Jacksonville Center
09:10PM 29.8433 -82.2964 113° Southeast 132 152 3,500  Level Jacksonville Center
09:11PM 29.8306 -82.2581 111° Southeast 133 153 3,500  Level Jacksonville Center
09:12PM 29.8181 -82.2150 108° East 132 152 3,500  Level Jacksonville Center
09:13PM 29.8072 -82.1769 108° East 130 150 3,500  Level Jacksonville Center
09:14PM 29.7925 -82.1386 114° Southeast 131 151 3,500  Level Jacksonville Center
09:15PM 29.7839 -82.0981 104° East 131 151 3,500  Level Jacksonville Center
09:16PM 29.7711 -82.0575 110° East 131 151 3,600  Climbing Jacksonville Center
09:17PM 29.7561 -82.0169 113° Southeast 129 148 3,500 -60 Descending Jacksonville Center
09:18PM 29.7456 -81.9811 109° East 129 148 3,500  Level Jacksonville Center
09:19PM 29.7328 -81.9406 110° East 130 150 3,500  Level Jacksonville Center
09:20PM 29.7200 -81.9050 112° Southeast 130 150 3,500  Level Jacksonville Center
09:21PM 29.7111 -81.8642 104° East 131 151 3,500  Level Jacksonville Center
09:22PM 29.7006 -81.8239 107° East 130 150 3,500  Level Jacksonville Center
09:23PM 29.6856 -81.7833 113° Southeast 131 151 3,500  Level Jacksonville Center
09:24PM 29.6725 -81.7453 112° Southeast 130 150 3,500  Level Jacksonville Center
09:25PM 29.6619 -81.7072 108° East 129 148 3,500 -120 Level Jacksonville Center
09:25PM 29.6597 -81.7047 136° Southeast 129 148 3,400 -120 Descending Jacksonville Center
09:27PM 29.6342 -81.6597 123° Southeast 136 157 3,400  Level Jacksonville Center
09:28PM 29.6047 -81.6242 134° Southeast 132 152 3,500  Climbing Jacksonville Center
09:29PM 29.5794 -81.5936 134° Southeast 130 150 3,500 -60 Level Jacksonville Center
09:30PM 29.5539 -81.5581 130° Southeast 132 152 3,400  Descending Jacksonville Center
09:31PM 29.5264 -81.5203 130° Southeast 133 153 3,500  Climbing Jacksonville Center
09:32PM 29.5031 -81.4894 131° Southeast 133 153 3,500  Level Jacksonville Center
09:33PM 29.4778 -81.4564 131° Southeast 133 153 3,500  Level Jacksonville Center
09:34PM 29.4628 -81.4353 129° Southeast 133 153 3,500  Level Jacksonville Center
09:35PM 29.4353 -81.3997 132° Southeast 134 154 3,500  Level Jacksonville Center
09:36PM 29.4119 -81.3669 129° Southeast 134 154 3,500  Level Jacksonville Center
09:37PM 29.3886 -81.3339 129° Southeast 137 158 3,500  Level Jacksonville Center
09:38PM 29.3631 -81.3008 132° Southeast 138 159 3,500  Level Jacksonville Center
09:39PM 29.3333 -81.2633 132° Southeast 138 159 3,500  Level Jacksonville Center
09:40PM 29.3058 -81.2281 132° Southeast 140 161 3,500  Level Jacksonville Center
09:41PM 29.2825 -81.1950 129° Southeast 140 161 3,500  Level Jacksonville Center
09:42PM 29.2464 -81.1647 144° Southeast 148 170 3,500 -300 Level Jacksonville Center
09:43PM 29.2089 -81.1533 165° South 158 182 2,900 -540 Descending Jacksonville Center
09:44PM 29.1758 -81.1803 215° Southwest 178 205 2,600 -420 Descending Jacksonville Center
09:45PM 29.1461 -81.1450 134° Southeast 126 145 2,000 -660 Descending Jacksonville Center
09:46PM 29.1561 -81.1164 68° East 93 107 1,100 -900 Descending Jacksonville Center
09:47PM 29.1642 -81.0925 69° East 76 87 300 -840 Descending Jacksonville Center
09:49PM 29.1667 -81.0500 128° Southeast  Level FlightAware Approximate
09:56PM 29.1799 -81.0581 128° Southeast  Level Estimated
09:57PM 29.1799 -81.0581 128° Southeast  Level Estimated
09:58PM 29.1799 -81.0581 128° Southeast  Level Estimated